Terminal Aerodrome Forecast
Issued by NWS Tuscon, AZ

Home | Current Version | Previous Version | Text Only | Print | Product List | Glossary On
Versions: 1 2 3 4 5 6 7 8 9 10 11 12
000
FTUS45 KTWC 272325
TAFDUG
TAF
KDUG 272325Z 2800/2824 25010KT P6SM FEW250
     FM280200 VRB05KT P6SM FEW250
     FM280600 04005KT P6SM SKC
     FM281900 24010G18KT P6SM FEW200=

USA.gov is the U.S. government's official web portal to all federal, state and local government web resources and services.